sensor_id;sensor_type;location;lat;lon;timestamp;pressure;altitude;pressure_sealevel;temperature;humidity
12073;BME280;6098;49.004;8.372;2023-05-14T00:08:57;100389.87;;;15.47;75.92
12073;BME280;6098;49.004;8.372;2023-05-14T00:23:48;100375.28;;;15.37;77.61
12073;BME280;6098;49.004;8.372;2023-05-14T00:38:41;100368.15;;;15.30;77.13
12073;BME280;6098;49.004;8.372;2023-05-14T00:53:34;100364.83;;;15.25;76.53
12073;BME280;6098;49.004;8.372;2023-05-14T01:23:54;100366.53;;;15.05;76.46
12073;BME280;6098;49.004;8.372;2023-05-14T01:38:46;100358.89;;;14.90;77.83
12073;BME280;6098;49.004;8.372;2023-05-14T01:53:37;100363.16;;;14.62;79.95
12073;BME280;6098;49.004;8.372;2023-05-14T02:08:30;100358.07;;;14.65;80.65
12073;BME280;6098;49.004;8.372;2023-05-14T02:23:21;100347.42;;;14.58;81.70
12073;BME280;6098;49.004;8.372;2023-05-14T02:38:14;100356.16;;;14.36;83.43
12073;BME280;6098;49.004;8.372;2023-05-14T02:53:06;100361.16;;;14.17;84.94
12073;BME280;6098;49.004;8.372;2023-05-14T03:07:59;100359.13;;;14.14;84.73
12073;BME280;6098;49.004;8.372;2023-05-14T03:22:52;100358.47;;;14.18;83.76
12073;BME280;6098;49.004;8.372;2023-05-14T03:37:45;100361.85;;;14.21;83.35
12073;BME280;6098;49.004;8.372;2023-05-14T03:52:35;100360.47;;;14.05;83.49
12073;BME280;6098;49.004;8.372;2023-05-14T04:07:27;100356.59;;;13.95;84.11
12073;BME280;6098;49.004;8.372;2023-05-14T04:22:18;100366.22;;;13.81;82.82
12073;BME280;6098;49.004;8.372;2023-05-14T04:37:10;100366.52;;;13.67;82.70
12073;BME280;6098;49.004;8.372;2023-05-14T04:52:01;100375.56;;;13.55;80.15
12073;BME280;6098;49.004;8.372;2023-05-14T05:06:53;100378.18;;;13.47;79.75
12073;BME280;6098;49.004;8.372;2023-05-14T05:21:44;100370.16;;;13.48;79.34
12073;BME280;6098;49.004;8.372;2023-05-14T05:36:35;100379.16;;;13.46;79.06
12073;BME280;6098;49.004;8.372;2023-05-14T05:51:28;100373.86;;;13.54;78.55
12073;BME280;6098;49.004;8.372;2023-05-14T06:06:21;100377.41;;;13.79;77.60
12073;BME280;6098;49.004;8.372;2023-05-14T06:21:14;100373.04;;;14.11;76.11
12073;BME280;6098;49.004;8.372;2023-05-14T06:36:06;100364.48;;;14.39;74.18
12073;BME280;6098;49.004;8.372;2023-05-14T06:50:59;100361.74;;;14.79;72.95
12073;BME280;6098;49.004;8.372;2023-05-14T07:05:52;100349.52;;;15.29;70.33
12073;BME280;6098;49.004;8.372;2023-05-14T07:20:45;100355.98;;;15.77;69.24
12073;BME280;6098;49.004;8.372;2023-05-14T07:35:38;100351.28;;;15.96;66.82
12073;BME280;6098;49.004;8.372;2023-05-14T07:50:31;100337.02;;;16.31;65.57
12073;BME280;6098;49.004;8.372;2023-05-14T08:05:23;100317.67;;;16.48;64.85
12073;BME280;6098;49.004;8.372;2023-05-14T08:20:16;100312.70;;;16.76;64.07
12073;BME280;6098;49.004;8.372;2023-05-14T08:35:11;100293.93;;;17.10;62.18
12073;BME280;6098;49.004;8.372;2023-05-14T08:50:05;100294.48;;;17.35;60.93
12073;BME280;6098;49.004;8.372;2023-05-14T09:04:58;100281.73;;;17.51;59.93
12073;BME280;6098;49.004;8.372;2023-05-14T09:19:49;100268.22;;;17.53;59.29
12073;BME280;6098;49.004;8.372;2023-05-14T09:34:45;100260.89;;;17.87;57.79
12073;BME280;6098;49.004;8.372;2023-05-14T09:49:39;100269.09;;;18.28;56.99
12073;BME280;6098;49.004;8.372;2023-05-14T10:04:32;100260.21;;;18.28;57.27
12073;BME280;6098;49.004;8.372;2023-05-14T10:19:25;100254.67;;;18.72;56.88
12073;BME280;6098;49.004;8.372;2023-05-14T10:34:43;100249.41;;;18.94;55.52
12073;BME280;6098;49.004;8.372;2023-05-14T10:49:55;100236.77;;;19.19;55.14
12073;BME280;6098;49.004;8.372;2023-05-14T11:19:56;100222.83;;;19.60;52.91
12073;BME280;6098;49.004;8.372;2023-05-14T11:34:49;100204.38;;;20.11;51.49
12073;BME280;6098;49.004;8.372;2023-05-14T11:49:42;100202.64;;;20.86;49.19
12073;BME280;6098;49.004;8.372;2023-05-14T12:04:34;100187.52;;;20.84;48.61
12073;BME280;6098;49.004;8.372;2023-05-14T12:19:26;100174.21;;;20.77;49.04
12073;BME280;6098;49.004;8.372;2023-05-14T12:34:19;100163.46;;;20.82;47.90
12073;BME280;6098;49.004;8.372;2023-05-14T12:49:11;100148.75;;;21.07;49.59
12073;BME280;6098;49.004;8.372;2023-05-14T13:04:04;100133.09;;;21.01;48.12
12073;BME280;6098;49.004;8.372;2023-05-14T13:18:57;100112.94;;;21.46;46.83
12073;BME280;6098;49.004;8.372;2023-05-14T13:33:50;100111.98;;;21.06;47.66
12073;BME280;6098;49.004;8.372;2023-05-14T13:48:48;100089.58;;;21.31;48.22
12073;BME280;6098;49.004;8.372;2023-05-14T14:03:42;100067.14;;;21.96;45.78
12073;BME280;6098;49.004;8.372;2023-05-14T14:18:41;100039.88;;;22.89;42.66
12073;BME280;6098;49.004;8.372;2023-05-14T14:33:34;100036.20;;;23.64;41.36
12073;BME280;6098;49.004;8.372;2023-05-14T14:48:35;100029.44;;;23.91;42.08
12073;BME280;6098;49.004;8.372;2023-05-14T15:03:32;100029.88;;;23.04;42.48
12073;BME280;6098;49.004;8.372;2023-05-14T15:18:17;100030.98;;;21.97;44.46
12073;BME280;6098;49.004;8.372;2023-05-14T15:33:14;100010.11;;;23.59;40.63
12073;BME280;6098;49.004;8.372;2023-05-14T15:48:18;100019.82;;;25.32;38.09
12073;BME280;6098;49.004;8.372;2023-05-14T16:03:15;100004.01;;;25.27;38.85
12073;BME280;6098;49.004;8.372;2023-05-14T16:18:01;100009.39;;;23.06;51.98
12073;BME280;6098;49.004;8.372;2023-05-14T16:32:49;100012.07;;;21.93;56.08
12073;BME280;6098;49.004;8.372;2023-05-14T16:47:39;100001.55;;;21.36;55.11
12073;BME280;6098;49.004;8.372;2023-05-14T17:02:29;99998.59;;;21.08;54.63
12073;BME280;6098;49.004;8.372;2023-05-14T17:17:21;100004.63;;;20.75;53.36
12073;BME280;6098;49.004;8.372;2023-05-14T17:32:13;100000.52;;;20.56;53.03
12073;BME280;6098;49.004;8.372;2023-05-14T17:47:05;100009.42;;;20.97;53.12
12073;BME280;6098;49.004;8.372;2023-05-14T18:01:59;100018.17;;;20.44;54.93
12073;BME280;6098;49.004;8.372;2023-05-14T18:16:50;100020.31;;;20.08;53.89
12073;BME280;6098;49.004;8.372;2023-05-14T18:31:41;100020.37;;;19.80;52.82
12073;BME280;6098;49.004;8.372;2023-05-14T18:46:32;100043.17;;;19.48;53.28
12073;BME280;6098;49.004;8.372;2023-05-14T19:01:24;100045.53;;;19.25;56.58
12073;BME280;6098;49.004;8.372;2023-05-14T19:16:15;100052.67;;;18.97;59.61
12073;BME280;6098;49.004;8.372;2023-05-14T19:31:07;100065.65;;;18.63;62.46
12073;BME280;6098;49.004;8.372;2023-05-14T19:45:57;100073.59;;;18.29;66.43
12073;BME280;6098;49.004;8.372;2023-05-14T20:00:48;100072.73;;;17.93;67.45
12073;BME280;6098;49.004;8.372;2023-05-14T20:15:45;100075.84;;;17.57;68.70
12073;BME280;6098;49.004;8.372;2023-05-14T20:30:36;100069.05;;;17.21;71.17
12073;BME280;6098;49.004;8.372;2023-05-14T20:45:30;100066.28;;;16.97;72.03
12073;BME280;6098;49.004;8.372;2023-05-14T21:00:21;100048.91;;;16.78;73.07
12073;BME280;6098;49.004;8.372;2023-05-14T21:15:16;100041.26;;;16.47;75.05
12073;BME280;6098;49.004;8.372;2023-05-14T21:30:09;100048.67;;;16.16;75.35
12073;BME280;6098;49.004;8.372;2023-05-14T21:45:01;100053.08;;;15.91;76.83
12073;BME280;6098;49.004;8.372;2023-05-14T21:59:53;100047.13;;;15.87;77.47
12073;BME280;6098;49.004;8.372;2023-05-14T22:14:45;100043.77;;;15.90;78.23
12073;BME280;6098;49.004;8.372;2023-05-14T22:29:38;100042.06;;;15.82;77.99
12073;BME280;6098;49.004;8.372;2023-05-14T22:44:30;100032.31;;;15.54;77.97
12073;BME280;6098;49.004;8.372;2023-05-14T22:59:22;100017.21;;;15.26;78.62
12073;BME280;6098;49.004;8.372;2023-05-14T23:14:26;100010.02;;;14.99;79.32
12073;BME280;6098;49.004;8.372;2023-05-14T23:29:18;100007.31;;;14.79;80.52
12073;BME280;6098;49.004;8.372;2023-05-14T23:44:09;99999.15;;;14.60;81.02
12073;BME280;6098;49.004;8.372;2023-05-14T23:59:02;99991.17;;;14.45;81.37
